Aviation Digital Data Service (ADDS)

Output produced by METARs form (0950 UTC 02 July 2015)
found at http://aviationweather.gov/adds/metars/
 
KLFT 020853Z AUTO 20003KT 10SM FEW015 24/22 A3003 RMK AO2 SLP170 T02390217 56007